sensor_id;sensor_type;location;lat;lon;timestamp;P1;durP1;ratioP1;P2;durP2;ratioP2
357;SDS011;167;47.558;7.602;2023-11-18T00:00:04;2.17;;;2.07;;
357;SDS011;167;47.558;7.602;2023-11-18T00:02:36;3.27;;;2.97;;
357;SDS011;167;47.558;7.602;2023-11-18T00:05:03;4.97;;;2.80;;
357;SDS011;167;47.558;7.602;2023-11-18T00:07:29;2.43;;;2.33;;
357;SDS011;167;47.558;7.602;2023-11-18T00:09:57;3.07;;;2.77;;
357;SDS011;167;47.558;7.602;2023-11-18T00:12:23;3.10;;;2.90;;
357;SDS011;167;47.558;7.602;2023-11-18T00:14:49;2.93;;;2.83;;
357;SDS011;167;47.558;7.602;2023-11-18T00:17:15;2.80;;;2.57;;
357;SDS011;167;47.558;7.602;2023-11-18T00:19:41;3.93;;;3.60;;
357;SDS011;167;47.558;7.602;2023-11-18T00:22:08;3.20;;;2.90;;
357;SDS011;167;47.558;7.602;2023-11-18T00:24:34;3.03;;;2.83;;
357;SDS011;167;47.558;7.602;2023-11-18T00:27:00;4.03;;;3.20;;
357;SDS011;167;47.558;7.602;2023-11-18T00:29:31;2.67;;;2.47;;
357;SDS011;167;47.558;7.602;2023-11-18T00:31:57;2.73;;;2.63;;
357;SDS011;167;47.558;7.602;2023-11-18T00:34:23;2.80;;;2.70;;
357;SDS011;167;47.558;7.602;2023-11-18T00:36:49;3.90;;;3.10;;
357;SDS011;167;47.558;7.602;2023-11-18T00:39:15;3.30;;;3.10;;
357;SDS011;167;47.558;7.602;2023-11-18T00:41:41;3.83;;;3.63;;
357;SDS011;167;47.558;7.602;2023-11-18T00:44:07;3.37;;;3.17;;
357;SDS011;167;47.558;7.602;2023-11-18T00:46:33;2.90;;;2.80;;
357;SDS011;167;47.558;7.602;2023-11-18T00:49:01;2.90;;;2.70;;
357;SDS011;167;47.558;7.602;2023-11-18T00:51:27;3.60;;;3.30;;
357;SDS011;167;47.558;7.602;2023-11-18T00:53:54;3.83;;;3.50;;
357;SDS011;167;47.558;7.602;2023-11-18T00:56:20;4.60;;;4.20;;
357;SDS011;167;47.558;7.602;2023-11-18T00:58:48;3.77;;;3.57;;
357;SDS011;167;47.558;7.602;2023-11-18T01:01:14;3.73;;;3.53;;
357;SDS011;167;47.558;7.602;2023-11-18T01:03:43;3.97;;;3.63;;
357;SDS011;167;47.558;7.602;2023-11-18T01:06:09;3.87;;;3.50;;
357;SDS011;167;47.558;7.602;2023-11-18T01:08:35;2.97;;;2.80;;
357;SDS011;167;47.558;7.602;2023-11-18T01:11:01;3.73;;;3.43;;
357;SDS011;167;47.558;7.602;2023-11-18T01:13:29;3.07;;;2.87;;
357;SDS011;167;47.558;7.602;2023-11-18T01:15:55;4.00;;;3.70;;
357;SDS011;167;47.558;7.602;2023-11-18T01:18:21;4.80;;;3.30;;
357;SDS011;167;47.558;7.602;2023-11-18T01:20:47;3.90;;;3.20;;
357;SDS011;167;47.558;7.602;2023-11-18T01:23:13;3.27;;;3.07;;
357;SDS011;167;47.558;7.602;2023-11-18T01:25:39;3.10;;;2.90;;
357;SDS011;167;47.558;7.602;2023-11-18T01:28:05;5.17;;;3.80;;
357;SDS011;167;47.558;7.602;2023-11-18T01:30:31;4.00;;;3.07;;
357;SDS011;167;47.558;7.602;2023-11-18T01:33:01;5.97;;;2.90;;
357;SDS011;167;47.558;7.602;2023-11-18T01:35:27;3.03;;;2.83;;
357;SDS011;167;47.558;7.602;2023-11-18T01:37:53;3.33;;;3.20;;
357;SDS011;167;47.558;7.602;2023-11-18T01:40:19;3.83;;;3.53;;
357;SDS011;167;47.558;7.602;2023-11-18T01:42:45;3.23;;;2.93;;
357;SDS011;167;47.558;7.602;2023-11-18T01:45:12;3.20;;;3.00;;
357;SDS011;167;47.558;7.602;2023-11-18T01:47:39;4.57;;;2.60;;
357;SDS011;167;47.558;7.602;2023-11-18T01:50:06;3.50;;;3.17;;
357;SDS011;167;47.558;7.602;2023-11-18T01:52:33;2.70;;;2.50;;
357;SDS011;167;47.558;7.602;2023-11-18T01:54:59;3.03;;;2.83;;
357;SDS011;167;47.558;7.602;2023-11-18T01:57:25;3.03;;;2.83;;
357;SDS011;167;47.558;7.602;2023-11-18T01:59:54;3.00;;;2.80;;
357;SDS011;167;47.558;7.602;2023-11-18T02:02:20;3.77;;;3.47;;
357;SDS011;167;47.558;7.602;2023-11-18T02:04:46;3.60;;;3.30;;
357;SDS011;167;47.558;7.602;2023-11-18T02:07:13;3.30;;;3.00;;
357;SDS011;167;47.558;7.602;2023-11-18T02:09:40;2.90;;;2.70;;
357;SDS011;167;47.558;7.602;2023-11-18T02:14:34;3.40;;;3.20;;
357;SDS011;167;47.558;7.602;2023-11-18T02:17:02;3.53;;;3.13;;
357;SDS011;167;47.558;7.602;2023-11-18T02:19:28;2.90;;;2.70;;
357;SDS011;167;47.558;7.602;2023-11-18T02:21:55;2.63;;;2.40;;
357;SDS011;167;47.558;7.602;2023-11-18T02:24:25;2.80;;;2.50;;
357;SDS011;167;47.558;7.602;2023-11-18T02:26:51;2.73;;;2.40;;
357;SDS011;167;47.558;7.602;2023-11-18T02:29:17;2.90;;;2.80;;
357;SDS011;167;47.558;7.602;2023-11-18T02:31:43;2.60;;;2.40;;
357;SDS011;167;47.558;7.602;2023-11-18T02:34:15;2.77;;;2.57;;
357;SDS011;167;47.558;7.602;2023-11-18T02:36:46;2.70;;;2.60;;
357;SDS011;167;47.558;7.602;2023-11-18T02:39:12;3.10;;;2.90;;
357;SDS011;167;47.558;7.602;2023-11-18T02:41:42;3.60;;;3.30;;
357;SDS011;167;47.558;7.602;2023-11-18T02:44:11;2.90;;;2.77;;
357;SDS011;167;47.558;7.602;2023-11-18T02:46:42;3.30;;;2.87;;
357;SDS011;167;47.558;7.602;2023-11-18T02:49:09;3.47;;;3.17;;
357;SDS011;167;47.558;7.602;2023-11-18T02:51:35;3.60;;;3.30;;
357;SDS011;167;47.558;7.602;2023-11-18T02:54:08;3.43;;;3.20;;
357;SDS011;167;47.558;7.602;2023-11-18T02:56:37;3.27;;;3.07;;
357;SDS011;167;47.558;7.602;2023-11-18T02:59:03;3.07;;;2.97;;
357;SDS011;167;47.558;7.602;2023-11-18T03:01:31;4.03;;;3.80;;
357;SDS011;167;47.558;7.602;2023-11-18T03:03:58;4.23;;;3.93;;
357;SDS011;167;47.558;7.602;2023-11-18T03:06:24;3.30;;;3.10;;
357;SDS011;167;47.558;7.602;2023-11-18T03:08:50;3.93;;;3.50;;
357;SDS011;167;47.558;7.602;2023-11-18T03:11:18;3.37;;;3.10;;
357;SDS011;167;47.558;7.602;2023-11-18T03:13:44;5.33;;;3.40;;
357;SDS011;167;47.558;7.602;2023-11-18T03:16:11;3.37;;;3.17;;
357;SDS011;167;47.558;7.602;2023-11-18T03:18:41;3.43;;;3.23;;
357;SDS011;167;47.558;7.602;2023-11-18T03:21:11;4.23;;;3.07;;
357;SDS011;167;47.558;7.602;2023-11-18T03:23:37;3.27;;;3.07;;
357;SDS011;167;47.558;7.602;2023-11-18T03:26:03;3.17;;;2.97;;
357;SDS011;167;47.558;7.602;2023-11-18T03:28:30;3.57;;;3.27;;
357;SDS011;167;47.558;7.602;2023-11-18T03:30:56;2.47;;;2.37;;
357;SDS011;167;47.558;7.602;2023-11-18T03:33:22;3.00;;;2.57;;
357;SDS011;167;47.558;7.602;2023-11-18T03:35:48;3.10;;;2.87;;
357;SDS011;167;47.558;7.602;2023-11-18T03:38:14;3.90;;;3.50;;
357;SDS011;167;47.558;7.602;2023-11-18T03:40:42;4.47;;;3.97;;
357;SDS011;167;47.558;7.602;2023-11-18T03:43:10;6.17;;;4.27;;
357;SDS011;167;47.558;7.602;2023-11-18T03:45:38;4.20;;;3.90;;
357;SDS011;167;47.558;7.602;2023-11-18T03:48:04;4.00;;;3.60;;
357;SDS011;167;47.558;7.602;2023-11-18T03:50:31;3.17;;;2.97;;
357;SDS011;167;47.558;7.602;2023-11-18T03:52:57;4.47;;;3.37;;
357;SDS011;167;47.558;7.602;2023-11-18T03:55:23;4.23;;;3.87;;
357;SDS011;167;47.558;7.602;2023-11-18T03:57:50;3.83;;;3.63;;
357;SDS011;167;47.558;7.602;2023-11-18T04:00:16;3.30;;;3.07;;
357;SDS011;167;47.558;7.602;2023-11-18T04:02:43;4.30;;;4.00;;
357;SDS011;167;47.558;7.602;2023-11-18T04:05:10;5.30;;;4.87;;
357;SDS011;167;47.558;7.602;2023-11-18T04:07:37;5.20;;;4.80;;
357;SDS011;167;47.558;7.602;2023-11-18T04:10:03;6.73;;;6.03;;
357;SDS011;167;47.558;7.602;2023-11-18T04:12:34;4.93;;;4.43;;
357;SDS011;167;47.558;7.602;2023-11-18T04:15:00;4.30;;;4.00;;
357;SDS011;167;47.558;7.602;2023-11-18T04:17:26;5.23;;;4.73;;
357;SDS011;167;47.558;7.602;2023-11-18T04:19:53;5.50;;;4.97;;
357;SDS011;167;47.558;7.602;2023-11-18T04:22:20;5.80;;;5.33;;
357;SDS011;167;47.558;7.602;2023-11-18T04:24:47;6.40;;;5.50;;
357;SDS011;167;47.558;7.602;2023-11-18T04:27:13;6.10;;;5.50;;
357;SDS011;167;47.558;7.602;2023-11-18T04:29:39;6.20;;;5.60;;
357;SDS011;167;47.558;7.602;2023-11-18T04:32:07;6.33;;;5.70;;
357;SDS011;167;47.558;7.602;2023-11-18T04:34:36;7.37;;;6.77;;
357;SDS011;167;47.558;7.602;2023-11-18T04:37:05;6.60;;;6.00;;
357;SDS011;167;47.558;7.602;2023-11-18T04:39:32;7.50;;;6.90;;
357;SDS011;167;47.558;7.602;2023-11-18T04:41:58;7.30;;;6.60;;
357;SDS011;167;47.558;7.602;2023-11-18T04:44:24;7.97;;;7.20;;
357;SDS011;167;47.558;7.602;2023-11-18T04:46:49;7.67;;;7.00;;
357;SDS011;167;47.558;7.602;2023-11-18T04:49:16;8.03;;;7.30;;
357;SDS011;167;47.558;7.602;2023-11-18T04:51:42;7.63;;;6.90;;
357;SDS011;167;47.558;7.602;2023-11-18T04:54:08;9.67;;;8.67;;
357;SDS011;167;47.558;7.602;2023-11-18T04:56:35;8.73;;;7.63;;
357;SDS011;167;47.558;7.602;2023-11-18T04:59:04;13.80;;;8.50;;
357;SDS011;167;47.558;7.602;2023-11-18T05:01:31;9.03;;;7.67;;
357;SDS011;167;47.558;7.602;2023-11-18T05:03:57;8.50;;;7.60;;
357;SDS011;167;47.558;7.602;2023-11-18T05:06:24;8.47;;;7.50;;
357;SDS011;167;47.558;7.602;2023-11-18T05:08:50;8.83;;;8.00;;
357;SDS011;167;47.558;7.602;2023-11-18T05:11:16;9.70;;;7.80;;
357;SDS011;167;47.558;7.602;2023-11-18T05:13:42;7.90;;;7.10;;
357;SDS011;167;47.558;7.602;2023-11-18T05:16:08;9.57;;;7.90;;
357;SDS011;167;47.558;7.602;2023-11-18T05:18:37;10.70;;;8.50;;
357;SDS011;167;47.558;7.602;2023-11-18T05:21:04;8.93;;;8.00;;
357;SDS011;167;47.558;7.602;2023-11-18T05:23:30;8.70;;;7.87;;
357;SDS011;167;47.558;7.602;2023-11-18T05:25:59;9.17;;;7.80;;
357;SDS011;167;47.558;7.602;2023-11-18T05:28:26;12.97;;;8.93;;
357;SDS011;167;47.558;7.602;2023-11-18T05:30:51;9.67;;;8.50;;
357;SDS011;167;47.558;7.602;2023-11-18T05:33:18;10.93;;;9.90;;
357;SDS011;167;47.558;7.602;2023-11-18T05:35:45;9.17;;;8.27;;
357;SDS011;167;47.558;7.602;2023-11-18T05:38:17;10.27;;;8.30;;
357;SDS011;167;47.558;7.602;2023-11-18T05:40:52;7.60;;;6.80;;
357;SDS011;167;47.558;7.602;2023-11-18T05:43:22;11.20;;;9.30;;
357;SDS011;167;47.558;7.602;2023-11-18T05:45:50;8.57;;;7.83;;
357;SDS011;167;47.558;7.602;2023-11-18T05:48:35;10.37;;;7.50;;
357;SDS011;167;47.558;7.602;2023-11-18T05:51:01;7.37;;;6.77;;
357;SDS011;167;47.558;7.602;2023-11-18T05:53:27;6.93;;;6.33;;
357;SDS011;167;47.558;7.602;2023-11-18T05:55:54;7.00;;;6.47;;
357;SDS011;167;47.558;7.602;2023-11-18T05:58:20;7.87;;;7.10;;
357;SDS011;167;47.558;7.602;2023-11-18T06:00:46;7.63;;;6.93;;
357;SDS011;167;47.558;7.602;2023-11-18T06:03:12;6.13;;;4.90;;
357;SDS011;167;47.558;7.602;2023-11-18T06:05:38;5.70;;;5.13;;
357;SDS011;167;47.558;7.602;2023-11-18T06:08:04;6.67;;;5.83;;
357;SDS011;167;47.558;7.602;2023-11-18T06:10:30;6.43;;;5.30;;
357;SDS011;167;47.558;7.602;2023-11-18T06:12:57;5.87;;;5.37;;
357;SDS011;167;47.558;7.602;2023-11-18T06:15:23;5.93;;;5.43;;
357;SDS011;167;47.558;7.602;2023-11-18T06:17:49;6.43;;;5.87;;
357;SDS011;167;47.558;7.602;2023-11-18T06:20:15;6.27;;;5.67;;
357;SDS011;167;47.558;7.602;2023-11-18T06:22:42;6.57;;;5.97;;
357;SDS011;167;47.558;7.602;2023-11-18T06:25:08;5.60;;;4.80;;
357;SDS011;167;47.558;7.602;2023-11-18T06:27:34;6.77;;;6.17;;
357;SDS011;167;47.558;7.602;2023-11-18T06:30:00;5.60;;;5.10;;
357;SDS011;167;47.558;7.602;2023-11-18T06:32:26;5.37;;;4.87;;
357;SDS011;167;47.558;7.602;2023-11-18T06:34:52;5.50;;;5.10;;
357;SDS011;167;47.558;7.602;2023-11-18T06:37:18;5.97;;;5.37;;
357;SDS011;167;47.558;7.602;2023-11-18T06:39:44;5.87;;;5.47;;
357;SDS011;167;47.558;7.602;2023-11-18T06:42:12;6.00;;;5.50;;
357;SDS011;167;47.558;7.602;2023-11-18T06:44:38;6.00;;;5.60;;
357;SDS011;167;47.558;7.602;2023-11-18T06:47:04;6.37;;;5.77;;
357;SDS011;167;47.558;7.602;2023-11-18T06:49:31;6.80;;;5.77;;
357;SDS011;167;47.558;7.602;2023-11-18T06:52:01;6.43;;;5.83;;
357;SDS011;167;47.558;7.602;2023-11-18T06:54:30;7.20;;;6.47;;
357;SDS011;167;47.558;7.602;2023-11-18T06:56:58;8.40;;;6.30;;
357;SDS011;167;47.558;7.602;2023-11-18T06:59:24;8.67;;;6.20;;
357;SDS011;167;47.558;7.602;2023-11-18T07:01:50;5.90;;;5.40;;
357;SDS011;167;47.558;7.602;2023-11-18T07:04:16;8.87;;;7.20;;
357;SDS011;167;47.558;7.602;2023-11-18T07:06:44;7.30;;;6.63;;
357;SDS011;167;47.558;7.602;2023-11-18T07:09:10;6.63;;;6.03;;
357;SDS011;167;47.558;7.602;2023-11-18T07:11:42;7.97;;;7.17;;
357;SDS011;167;47.558;7.602;2023-11-18T07:14:11;7.13;;;6.53;;
357;SDS011;167;47.558;7.602;2023-11-18T07:16:40;6.43;;;5.87;;
357;SDS011;167;47.558;7.602;2023-11-18T07:19:07;7.50;;;5.67;;
357;SDS011;167;47.558;7.602;2023-11-18T07:21:40;7.93;;;5.90;;
357;SDS011;167;47.558;7.602;2023-11-18T07:24:06;5.27;;;4.87;;
357;SDS011;167;47.558;7.602;2023-11-18T07:26:32;6.23;;;5.70;;
357;SDS011;167;47.558;7.602;2023-11-18T07:28:58;7.10;;;5.90;;
357;SDS011;167;47.558;7.602;2023-11-18T07:31:24;7.10;;;6.50;;
357;SDS011;167;47.558;7.602;2023-11-18T07:33:50;6.30;;;5.70;;
357;SDS011;167;47.558;7.602;2023-11-18T07:36:17;5.60;;;4.90;;
357;SDS011;167;47.558;7.602;2023-11-18T07:38:46;6.30;;;5.80;;
357;SDS011;167;47.558;7.602;2023-11-18T07:41:12;6.63;;;6.07;;
357;SDS011;167;47.558;7.602;2023-11-18T07:43:52;5.00;;;4.60;;
357;SDS011;167;47.558;7.602;2023-11-18T07:46:19;5.57;;;5.00;;
357;SDS011;167;47.558;7.602;2023-11-18T07:48:47;4.70;;;4.30;;
357;SDS011;167;47.558;7.602;2023-11-18T07:51:14;5.30;;;4.90;;
357;SDS011;167;47.558;7.602;2023-11-18T07:53:40;5.27;;;4.30;;
357;SDS011;167;47.558;7.602;2023-11-18T07:56:07;3.50;;;3.27;;
357;SDS011;167;47.558;7.602;2023-11-18T07:58:35;4.73;;;4.33;;
357;SDS011;167;47.558;7.602;2023-11-18T08:01:02;5.40;;;4.90;;
357;SDS011;167;47.558;7.602;2023-11-18T08:03:32;4.17;;;3.80;;
357;SDS011;167;47.558;7.602;2023-11-18T08:05:58;4.47;;;4.17;;
357;SDS011;167;47.558;7.602;2023-11-18T08:08:24;4.10;;;3.80;;
357;SDS011;167;47.558;7.602;2023-11-18T08:10:50;5.60;;;5.10;;
357;SDS011;167;47.558;7.602;2023-11-18T08:13:16;5.13;;;4.77;;
357;SDS011;167;47.558;7.602;2023-11-18T08:15:43;5.53;;;5.03;;
357;SDS011;167;47.558;7.602;2023-11-18T08:18:12;4.47;;;4.07;;
357;SDS011;167;47.558;7.602;2023-11-18T08:20:38;5.37;;;4.90;;
357;SDS011;167;47.558;7.602;2023-11-18T08:23:04;5.20;;;4.43;;
357;SDS011;167;47.558;7.602;2023-11-18T08:25:30;5.17;;;4.67;;
357;SDS011;167;47.558;7.602;2023-11-18T08:28:00;6.00;;;5.50;;
357;SDS011;167;47.558;7.602;2023-11-18T08:30:26;5.33;;;4.83;;
357;SDS011;167;47.558;7.602;2023-11-18T08:32:52;5.37;;;4.93;;
357;SDS011;167;47.558;7.602;2023-11-18T08:35:18;4.47;;;4.07;;
357;SDS011;167;47.558;7.602;2023-11-18T08:37:47;5.17;;;4.77;;
357;SDS011;167;47.558;7.602;2023-11-18T08:40:13;5.27;;;4.87;;
357;SDS011;167;47.558;7.602;2023-11-18T08:42:50;5.13;;;4.33;;
357;SDS011;167;47.558;7.602;2023-11-18T08:45:17;4.40;;;4.00;;
357;SDS011;167;47.558;7.602;2023-11-18T08:47:44;5.57;;;4.90;;
357;SDS011;167;47.558;7.602;2023-11-18T08:50:11;4.07;;;3.70;;
357;SDS011;167;47.558;7.602;2023-11-18T08:52:37;4.30;;;3.90;;
357;SDS011;167;47.558;7.602;2023-11-18T08:55:08;4.83;;;4.07;;
357;SDS011;167;47.558;7.602;2023-11-18T08:57:42;4.20;;;3.90;;
357;SDS011;167;47.558;7.602;2023-11-18T09:00:29;4.20;;;3.80;;
357;SDS011;167;47.558;7.602;2023-11-18T09:03:14;4.00;;;3.70;;
357;SDS011;167;47.558;7.602;2023-11-18T09:05:49;3.33;;;3.03;;
357;SDS011;167;47.558;7.602;2023-11-18T09:08:36;3.80;;;3.50;;
357;SDS011;167;47.558;7.602;2023-11-18T09:11:11;2.90;;;2.70;;
357;SDS011;167;47.558;7.602;2023-11-18T09:13:42;3.53;;;3.03;;
357;SDS011;167;47.558;7.602;2023-11-18T09:16:10;4.17;;;3.83;;
357;SDS011;167;47.558;7.602;2023-11-18T09:18:40;3.63;;;3.43;;
357;SDS011;167;47.558;7.602;2023-11-18T09:21:08;3.57;;;3.27;;
357;SDS011;167;47.558;7.602;2023-11-18T09:23:39;3.43;;;3.23;;
357;SDS011;167;47.558;7.602;2023-11-18T09:26:06;3.57;;;3.37;;
357;SDS011;167;47.558;7.602;2023-11-18T09:28:32;3.43;;;3.17;;
357;SDS011;167;47.558;7.602;2023-11-18T09:31:00;4.30;;;3.87;;
357;SDS011;167;47.558;7.602;2023-11-18T09:33:28;2.87;;;2.67;;
357;SDS011;167;47.558;7.602;2023-11-18T09:36:07;3.17;;;2.97;;
357;SDS011;167;47.558;7.602;2023-11-18T09:38:34;3.60;;;3.40;;
357;SDS011;167;47.558;7.602;2023-11-18T09:41:00;3.47;;;3.27;;
357;SDS011;167;47.558;7.602;2023-11-18T09:43:35;3.40;;;3.20;;
357;SDS011;167;47.558;7.602;2023-11-18T09:46:07;3.00;;;2.80;;
357;SDS011;167;47.558;7.602;2023-11-18T09:48:38;3.23;;;3.03;;
357;SDS011;167;47.558;7.602;2023-11-18T09:51:06;3.57;;;3.37;;
357;SDS011;167;47.558;7.602;2023-11-18T09:53:33;4.20;;;2.70;;
357;SDS011;167;47.558;7.602;2023-11-18T09:56:07;2.93;;;2.73;;
357;SDS011;167;47.558;7.602;2023-11-18T09:58:44;2.67;;;2.47;;
357;SDS011;167;47.558;7.602;2023-11-18T10:01:15;3.20;;;3.10;;
357;SDS011;167;47.558;7.602;2023-11-18T10:03:44;3.23;;;3.03;;
357;SDS011;167;47.558;7.602;2023-11-18T10:06:11;3.07;;;2.87;;
357;SDS011;167;47.558;7.602;2023-11-18T10:08:40;3.13;;;2.83;;
357;SDS011;167;47.558;7.602;2023-11-18T10:11:11;2.90;;;2.70;;
357;SDS011;167;47.558;7.602;2023-11-18T10:13:38;5.03;;;2.60;;
357;SDS011;167;47.558;7.602;2023-11-18T10:16:06;2.73;;;2.53;;
357;SDS011;167;47.558;7.602;2023-11-18T10:18:32;2.90;;;2.70;;
357;SDS011;167;47.558;7.602;2023-11-18T10:21:02;3.27;;;2.97;;
357;SDS011;167;47.558;7.602;2023-11-18T10:23:36;2.80;;;2.60;;
357;SDS011;167;47.558;7.602;2023-11-18T10:26:02;2.37;;;2.27;;
357;SDS011;167;47.558;7.602;2023-11-18T10:30:58;2.47;;;2.37;;
357;SDS011;167;47.558;7.602;2023-11-18T10:33:28;2.40;;;2.20;;
357;SDS011;167;47.558;7.602;2023-11-18T10:35:55;2.30;;;2.10;;
357;SDS011;167;47.558;7.602;2023-11-18T10:38:22;2.67;;;2.47;;
357;SDS011;167;47.558;7.602;2023-11-18T10:40:54;2.93;;;2.73;;
357;SDS011;167;47.558;7.602;2023-11-18T10:43:21;2.97;;;2.77;;
357;SDS011;167;47.558;7.602;2023-11-18T10:45:50;2.40;;;2.23;;
357;SDS011;167;47.558;7.602;2023-11-18T10:48:17;2.63;;;2.43;;
357;SDS011;167;47.558;7.602;2023-11-18T10:50:48;2.67;;;2.40;;
357;SDS011;167;47.558;7.602;2023-11-18T10:53:16;2.10;;;2.00;;
357;SDS011;167;47.558;7.602;2023-11-18T10:55:42;2.83;;;2.30;;
357;SDS011;167;47.558;7.602;2023-11-18T10:58:08;2.43;;;2.33;;
357;SDS011;167;47.558;7.602;2023-11-18T11:00:50;2.20;;;2.00;;
357;SDS011;167;47.558;7.602;2023-11-18T11:03:18;1.90;;;1.80;;
357;SDS011;167;47.558;7.602;2023-11-18T11:05:44;2.27;;;2.17;;
357;SDS011;167;47.558;7.602;2023-11-18T11:08:14;1.93;;;1.60;;
357;SDS011;167;47.558;7.602;2023-11-18T11:10:41;2.83;;;1.80;;
357;SDS011;167;47.558;7.602;2023-11-18T11:13:08;1.97;;;1.87;;
357;SDS011;167;47.558;7.602;2023-11-18T11:15:36;2.00;;;1.90;;
357;SDS011;167;47.558;7.602;2023-11-18T11:18:05;9.13;;;4.53;;
357;SDS011;167;47.558;7.602;2023-11-18T11:20:37;3.50;;;3.20;;
357;SDS011;167;47.558;7.602;2023-11-18T11:25:53;2.70;;;2.50;;
357;SDS011;167;47.558;7.602;2023-11-18T11:28:22;2.33;;;2.20;;
357;SDS011;167;47.558;7.602;2023-11-18T11:30:55;2.27;;;2.17;;
357;SDS011;167;47.558;7.602;2023-11-18T11:33:35;2.20;;;2.10;;
357;SDS011;167;47.558;7.602;2023-11-18T11:36:11;2.90;;;2.70;;
357;SDS011;167;47.558;7.602;2023-11-18T11:38:41;2.53;;;2.43;;
357;SDS011;167;47.558;7.602;2023-11-18T11:41:11;2.50;;;2.40;;
357;SDS011;167;47.558;7.602;2023-11-18T11:43:44;2.40;;;2.30;;
357;SDS011;167;47.558;7.602;2023-11-18T11:46:11;2.93;;;2.73;;
357;SDS011;167;47.558;7.602;2023-11-18T11:48:38;2.30;;;2.20;;
357;SDS011;167;47.558;7.602;2023-11-18T11:53:39;3.03;;;2.53;;
357;SDS011;167;47.558;7.602;2023-11-18T11:56:10;2.97;;;2.80;;
357;SDS011;167;47.558;7.602;2023-11-18T11:58:45;2.50;;;2.30;;
357;SDS011;167;47.558;7.602;2023-11-18T12:01:26;3.07;;;2.77;;
357;SDS011;167;47.558;7.602;2023-11-18T12:03:58;2.57;;;2.47;;
357;SDS011;167;47.558;7.602;2023-11-18T12:06:31;2.47;;;2.27;;
357;SDS011;167;47.558;7.602;2023-11-18T12:08:57;4.57;;;2.67;;
357;SDS011;167;47.558;7.602;2023-11-18T12:11:23;2.03;;;1.93;;
357;SDS011;167;47.558;7.602;2023-11-18T12:17:19;2.10;;;1.97;;
357;SDS011;167;47.558;7.602;2023-11-18T12:19:31;4.23;;;2.30;;
357;SDS011;167;47.558;7.602;2023-11-18T12:22:01;2.23;;;2.13;;
357;SDS011;167;47.558;7.602;2023-11-18T12:24:37;2.40;;;2.13;;
357;SDS011;167;47.558;7.602;2023-11-18T12:27:04;2.93;;;2.73;;
357;SDS011;167;47.558;7.602;2023-11-18T12:29:43;2.90;;;2.70;;
357;SDS011;167;47.558;7.602;2023-11-18T12:32:09;2.20;;;2.00;;
357;SDS011;167;47.558;7.602;2023-11-18T12:34:54;2.23;;;2.13;;
357;SDS011;167;47.558;7.602;2023-11-18T12:39:57;2.67;;;2.47;;
357;SDS011;167;47.558;7.602;2023-11-18T12:42:47;2.87;;;2.53;;
357;SDS011;167;47.558;7.602;2023-11-18T12:45:27;3.03;;;2.83;;
357;SDS011;167;47.558;7.602;2023-11-18T12:47:58;4.47;;;2.90;;
357;SDS011;167;47.558;7.602;2023-11-18T12:50:36;2.57;;;2.47;;
357;SDS011;167;47.558;7.602;2023-11-18T12:53:04;2.73;;;2.53;;
357;SDS011;167;47.558;7.602;2023-11-18T12:55:31;2.70;;;2.50;;
357;SDS011;167;47.558;7.602;2023-11-18T12:57:59;2.37;;;2.27;;
357;SDS011;167;47.558;7.602;2023-11-18T13:00:25;2.60;;;2.50;;
357;SDS011;167;47.558;7.602;2023-11-18T13:02:59;3.30;;;2.50;;
357;SDS011;167;47.558;7.602;2023-11-18T13:05:25;3.20;;;2.80;;
357;SDS011;167;47.558;7.602;2023-11-18T13:07:54;2.60;;;2.40;;
357;SDS011;167;47.558;7.602;2023-11-18T13:10:21;2.73;;;2.60;;
357;SDS011;167;47.558;7.602;2023-11-18T13:12:47;2.80;;;2.60;;
357;SDS011;167;47.558;7.602;2023-11-18T13:15:15;3.23;;;3.03;;
357;SDS011;167;47.558;7.602;2023-11-18T13:17:56;3.00;;;2.90;;
357;SDS011;167;47.558;7.602;2023-11-18T13:20:22;2.90;;;2.80;;
357;SDS011;167;47.558;7.602;2023-11-18T13:22:51;3.37;;;3.17;;
357;SDS011;167;47.558;7.602;2023-11-18T13:25:17;3.23;;;3.10;;
357;SDS011;167;47.558;7.602;2023-11-18T13:27:43;3.07;;;2.87;;
357;SDS011;167;47.558;7.602;2023-11-18T13:30:10;3.87;;;3.57;;
357;SDS011;167;47.558;7.602;2023-11-18T13:32:41;2.90;;;2.70;;
357;SDS011;167;47.558;7.602;2023-11-18T13:35:08;2.77;;;2.67;;
357;SDS011;167;47.558;7.602;2023-11-18T13:37:34;3.00;;;2.80;;
357;SDS011;167;47.558;7.602;2023-11-18T13:40:00;5.37;;;3.07;;
357;SDS011;167;47.558;7.602;2023-11-18T13:42:30;2.97;;;2.77;;
357;SDS011;167;47.558;7.602;2023-11-18T13:45:04;3.67;;;3.37;;
357;SDS011;167;47.558;7.602;2023-11-18T13:47:36;3.43;;;3.13;;
357;SDS011;167;47.558;7.602;2023-11-18T13:50:06;3.57;;;3.37;;
357;SDS011;167;47.558;7.602;2023-11-18T13:52:33;3.73;;;2.97;;
357;SDS011;167;47.558;7.602;2023-11-18T13:54:59;3.53;;;2.97;;
357;SDS011;167;47.558;7.602;2023-11-18T13:57:25;2.77;;;2.67;;
357;SDS011;167;47.558;7.602;2023-11-18T13:59:51;3.57;;;3.30;;
357;SDS011;167;47.558;7.602;2023-11-18T14:02:19;2.80;;;2.60;;
357;SDS011;167;47.558;7.602;2023-11-18T14:04:46;3.07;;;2.80;;
357;SDS011;167;47.558;7.602;2023-11-18T14:07:16;2.70;;;2.50;;
357;SDS011;167;47.558;7.602;2023-11-18T14:09:43;3.90;;;3.50;;
357;SDS011;167;47.558;7.602;2023-11-18T14:12:10;4.67;;;3.40;;
357;SDS011;167;47.558;7.602;2023-11-18T14:14:37;3.50;;;3.30;;
357;SDS011;167;47.558;7.602;2023-11-18T14:17:05;3.00;;;2.80;;
357;SDS011;167;47.558;7.602;2023-11-18T14:19:34;3.40;;;3.20;;
357;SDS011;167;47.558;7.602;2023-11-18T14:22:00;3.00;;;2.80;;
357;SDS011;167;47.558;7.602;2023-11-18T14:24:29;2.60;;;2.40;;
357;SDS011;167;47.558;7.602;2023-11-18T14:26:56;3.33;;;2.60;;
357;SDS011;167;47.558;7.602;2023-11-18T14:29:23;2.73;;;2.63;;
357;SDS011;167;47.558;7.602;2023-11-18T14:31:49;2.23;;;2.13;;
357;SDS011;167;47.558;7.602;2023-11-18T14:34:15;2.20;;;2.00;;
357;SDS011;167;47.558;7.602;2023-11-18T14:36:41;2.57;;;2.47;;
357;SDS011;167;47.558;7.602;2023-11-18T14:39:10;2.60;;;2.47;;
357;SDS011;167;47.558;7.602;2023-11-18T14:41:38;2.00;;;1.90;;
357;SDS011;167;47.558;7.602;2023-11-18T14:44:05;2.20;;;2.10;;
357;SDS011;167;47.558;7.602;2023-11-18T14:46:34;2.00;;;1.90;;
357;SDS011;167;47.558;7.602;2023-11-18T14:49:00;1.70;;;1.60;;
357;SDS011;167;47.558;7.602;2023-11-18T14:51:26;2.27;;;1.97;;
357;SDS011;167;47.558;7.602;2023-11-18T14:53:52;1.83;;;1.50;;
357;SDS011;167;47.558;7.602;2023-11-18T14:56:18;2.27;;;2.10;;
357;SDS011;167;47.558;7.602;2023-11-18T14:58:44;1.80;;;1.70;;
357;SDS011;167;47.558;7.602;2023-11-18T15:01:14;1.57;;;1.47;;
357;SDS011;167;47.558;7.602;2023-11-18T15:03:40;1.23;;;1.23;;
357;SDS011;167;47.558;7.602;2023-11-18T15:06:06;1.37;;;1.27;;
357;SDS011;167;47.558;7.602;2023-11-18T15:08:35;1.60;;;1.50;;
357;SDS011;167;47.558;7.602;2023-11-18T15:11:01;2.77;;;1.97;;
357;SDS011;167;47.558;7.602;2023-11-18T15:13:27;1.57;;;1.47;;
357;SDS011;167;47.558;7.602;2023-11-18T15:15:53;1.47;;;1.37;;
357;SDS011;167;47.558;7.602;2023-11-18T15:18:19;1.70;;;1.60;;
357;SDS011;167;47.558;7.602;2023-11-18T15:20:46;1.10;;;1.10;;
357;SDS011;167;47.558;7.602;2023-11-18T15:23:12;1.30;;;1.30;;
357;SDS011;167;47.558;7.602;2023-11-18T15:25:41;1.50;;;1.40;;
357;SDS011;167;47.558;7.602;2023-11-18T15:28:07;1.33;;;1.23;;
357;SDS011;167;47.558;7.602;2023-11-18T15:30:39;1.10;;;1.10;;
357;SDS011;167;47.558;7.602;2023-11-18T15:33:05;1.70;;;1.27;;
357;SDS011;167;47.558;7.602;2023-11-18T15:35:37;1.10;;;1.10;;
357;SDS011;167;47.558;7.602;2023-11-18T15:38:03;1.20;;;1.10;;
357;SDS011;167;47.558;7.602;2023-11-18T15:40:36;1.50;;;1.40;;
357;SDS011;167;47.558;7.602;2023-11-18T15:43:03;1.07;;;1.07;;
357;SDS011;167;47.558;7.602;2023-11-18T15:45:32;3.43;;;1.70;;
357;SDS011;167;47.558;7.602;2023-11-18T15:47:59;1.20;;;1.20;;
357;SDS011;167;47.558;7.602;2023-11-18T15:50:25;0.90;;;0.90;;
357;SDS011;167;47.558;7.602;2023-11-18T15:52:54;1.80;;;1.47;;
357;SDS011;167;47.558;7.602;2023-11-18T15:55:20;1.67;;;1.57;;
357;SDS011;167;47.558;7.602;2023-11-18T15:57:49;1.40;;;1.30;;
357;SDS011;167;47.558;7.602;2023-11-18T16:00:19;1.10;;;1.10;;
357;SDS011;167;47.558;7.602;2023-11-18T16:02:49;1.37;;;1.27;;
357;SDS011;167;47.558;7.602;2023-11-18T16:05:16;2.07;;;1.50;;